createdAt,value
2018-08-09T00:01:15.235Z,89.50
2018-08-09T00:03:43.699Z,90.40
2018-08-09T00:06:12.166Z,90.30
2018-08-09T00:08:40.624Z,90.70
2018-08-09T00:11:09.205Z,90.20
2018-08-09T00:13:37.806Z,89.60
2018-08-09T00:16:06.284Z,89.20
2018-08-09T00:18:34.728Z,88.70
2018-08-09T00:21:03.218Z,90.40
2018-08-09T00:23:31.749Z,90.60
2018-08-09T00:26:00.316Z,90.80
2018-08-09T00:28:28.895Z,90.60
2018-08-09T00:30:57.378Z,90.80
2018-08-09T00:33:25.805Z,90.60
2018-08-09T00:35:54.264Z,90.40
2018-08-09T00:38:23.475Z,90.30
2018-08-09T00:40:52.593Z,90.00
2018-08-09T00:43:21.073Z,91.10
2018-08-09T00:45:49.550Z,90.20
2018-08-09T00:48:18.012Z,90.80
2018-08-09T00:50:46.464Z,90.90
2018-08-09T00:53:14.919Z,91.10
2018-08-09T00:55:43.946Z,91.90
2018-08-09T00:58:12.397Z,92.00
2018-08-09T01:00:40.820Z,91.80
2018-08-09T01:03:09.305Z,91.10
2018-08-09T01:05:37.773Z,91.20
2018-08-09T01:08:06.291Z,91.80
2018-08-09T01:10:34.819Z,91.50
2018-08-09T01:13:03.256Z,91.50
2018-08-09T01:15:31.764Z,90.70
2018-08-09T01:18:00.971Z,90.30
2018-08-09T01:20:29.367Z,90.00
2018-08-09T01:22:57.838Z,90.30
2018-08-09T01:25:26.316Z,90.50
2018-08-09T01:27:54.755Z,90.70
2018-08-09T01:30:23.203Z,91.10
2018-08-09T01:32:51.665Z,91.10
2018-08-09T01:35:20.132Z,90.90
2018-08-09T01:37:48.599Z,91.10
2018-08-09T01:40:17.080Z,91.70
2018-08-09T01:42:56.728Z,91.80
2018-08-09T01:45:26.019Z,91.90
2018-08-09T01:47:54.520Z,92.50
2018-08-09T01:50:22.943Z,91.60
2018-08-09T01:52:51.357Z,91.10
2018-08-09T01:55:19.850Z,90.80
2018-08-09T01:57:48.269Z,90.70
2018-08-09T02:00:16.701Z,91.30
2018-08-09T02:02:45.232Z,90.80
2018-08-09T02:05:14.355Z,91.40
2018-08-09T02:07:42.810Z,92.20
2018-08-09T02:10:11.328Z,92.80
2018-08-09T02:12:39.795Z,93.40
2018-08-09T02:15:08.287Z,93.00
2018-08-09T02:17:36.747Z,92.30
2018-08-09T02:20:05.278Z,92.10
2018-08-09T02:22:33.732Z,92.00
2018-08-09T02:25:02.164Z,92.00
2018-08-09T02:27:30.623Z,92.00
2018-08-09T02:29:59.139Z,91.90
2018-08-09T02:32:27.601Z,91.80
2018-08-09T02:34:56.047Z,91.90
2018-08-09T02:37:24.463Z,91.00
2018-08-09T02:39:52.889Z,91.20
2018-08-09T02:42:21.340Z,90.90
2018-08-09T02:44:49.799Z,91.00
2018-08-09T02:47:18.276Z,91.40
2018-08-09T02:49:46.747Z,91.70
2018-08-09T02:52:15.191Z,92.30
2018-08-09T02:54:43.662Z,92.60
2018-08-09T02:57:12.203Z,92.90
2018-08-09T02:59:40.669Z,92.50
2018-08-09T03:02:09.109Z,92.70
2018-08-09T03:04:37.576Z,92.10
2018-08-09T03:07:06.332Z,92.70
2018-08-09T03:09:34.789Z,93.90
2018-08-09T03:12:03.242Z,93.30
2018-08-09T03:14:31.675Z,92.60
2018-08-09T03:17:00.142Z,91.80
2018-08-09T03:19:28.586Z,91.40
2018-08-09T03:21:57.041Z,91.70
2018-08-09T03:24:25.585Z,91.50
2018-08-09T03:26:53.980Z,91.50
2018-08-09T03:29:23.289Z,91.90
2018-08-09T03:31:51.845Z,91.40
2018-08-09T03:34:20.954Z,91.40
2018-08-09T03:36:49.429Z,92.90
2018-08-09T03:39:17.860Z,92.40
2018-08-09T03:41:46.792Z,92.30
2018-08-09T03:44:15.300Z,92.50
2018-08-09T03:46:43.808Z,93.50
2018-08-09T03:49:12.274Z,94.00
2018-08-09T03:51:40.782Z,93.80
2018-08-09T03:54:09.853Z,93.60
2018-08-09T03:56:38.347Z,93.10
2018-08-09T03:59:06.812Z,92.60
2018-08-09T04:01:35.315Z,92.10
2018-08-09T04:04:03.962Z,91.00
2018-08-09T04:06:32.506Z,90.70
2018-08-09T04:09:01.141Z,90.60
2018-08-09T04:11:29.565Z,89.20
2018-08-09T04:13:58.547Z,88.70
2018-08-09T04:16:27.040Z,88.90
2018-08-09T04:18:55.559Z,88.10
2018-08-09T04:21:24.044Z,87.40
2018-08-09T04:23:52.445Z,86.70
2018-08-09T04:26:21.052Z,85.40
2018-08-09T04:28:50.265Z,84.00
2018-08-09T04:31:18.740Z,83.70
2018-08-09T04:33:47.189Z,82.60
2018-08-09T04:36:15.638Z,82.50
2018-08-09T04:38:44.160Z,82.10
2018-08-09T04:41:12.743Z,82.60
2018-08-09T04:43:41.181Z,82.40
2018-08-09T04:46:09.750Z,82.70
2018-08-09T04:48:38.278Z,82.20
2018-08-09T04:51:06.787Z,82.80
2018-08-09T04:53:35.221Z,82.60
2018-08-09T04:56:03.749Z,82.40
2018-08-09T04:58:32.326Z,81.60
2018-08-09T05:01:00.803Z,79.60
2018-08-09T05:03:29.317Z,79.40
2018-08-09T05:05:57.807Z,79.10
2018-08-09T05:08:26.334Z,78.90
2018-08-09T05:10:54.908Z,79.80
2018-08-09T05:13:23.367Z,78.10
2018-08-09T05:15:51.840Z,78.00
2018-08-09T05:18:20.261Z,76.80
2018-08-09T05:20:48.777Z,77.30
2018-08-09T05:23:17.207Z,77.10
2018-08-09T05:25:45.699Z,77.20
2018-08-09T05:28:14.187Z,75.80
2018-08-09T05:30:42.649Z,75.40
2018-08-09T05:33:11.105Z,73.60
2018-08-09T05:35:39.562Z,74.10
2018-08-09T05:38:08.009Z,73.90
2018-08-09T05:40:36.566Z,72.60
2018-08-09T05:43:05.140Z,71.70
2018-08-09T05:45:33.673Z,70.60
2018-08-09T05:48:02.170Z,69.50
2018-08-09T05:50:30.766Z,68.80
2018-08-09T05:53:00.038Z,66.40
2018-08-09T05:55:28.483Z,65.60
2018-08-09T05:57:56.943Z,65.00
2018-08-09T06:00:25.445Z,63.50
2018-08-09T06:02:54.040Z,64.00
2018-08-09T06:05:22.528Z,63.90
2018-08-09T06:07:51.043Z,63.70
2018-08-09T06:10:19.611Z,64.60
2018-08-09T06:12:48.195Z,65.30
2018-08-09T06:15:17.464Z,64.30
2018-08-09T06:17:46.031Z,63.90
2018-08-09T06:20:14.568Z,63.20
2018-08-09T06:22:43.089Z,62.80
2018-08-09T06:25:11.562Z,63.40
2018-08-09T06:27:40.047Z,61.10
2018-08-09T06:30:09.969Z,57.00
2018-08-09T06:32:38.763Z,55.00
2018-08-09T06:35:08.359Z,51.60
2018-08-09T06:37:36.987Z,51.60
2018-08-09T06:40:09.405Z,50.30
2018-08-09T06:42:38.060Z,51.10
2018-08-09T06:45:06.508Z,48.50
2018-08-09T06:47:35.645Z,48.30
2018-08-09T06:50:04.639Z,44.90
2018-08-09T06:52:33.184Z,41.60
2018-08-09T06:55:01.692Z,39.10
2018-08-09T06:57:30.159Z,37.60
2018-08-09T06:59:59.257Z,36.00
2018-08-09T07:02:27.807Z,34.70
2018-08-09T07:04:56.265Z,34.10
2018-08-09T07:07:24.895Z,33.00
2018-08-09T07:09:53.355Z,32.60
2018-08-09T07:12:21.930Z,33.70
2018-08-09T07:14:50.630Z,33.80
2018-08-09T07:17:19.103Z,33.40
2018-08-09T07:19:47.658Z,32.70
2018-08-09T07:22:16.169Z,31.20
2018-08-09T07:24:44.645Z,31.30
2018-08-09T07:27:13.268Z,29.80
2018-08-09T07:29:41.678Z,30.10
2018-08-09T07:32:10.207Z,28.50
2018-08-09T07:34:38.844Z,29.10
2018-08-09T07:37:07.634Z,31.00
2018-08-09T07:39:36.237Z,30.00
2018-08-09T07:42:04.617Z,29.20
2018-08-09T07:44:33.207Z,27.90
2018-08-09T07:47:01.768Z,28.00
2018-08-09T07:49:30.251Z,27.60
2018-08-09T07:51:58.863Z,27.70
2018-08-09T07:54:27.552Z,26.40
2018-08-09T07:56:56.060Z,26.50
2018-08-09T07:59:24.542Z,26.80
2018-08-09T08:01:53.131Z,29.40
2018-08-09T08:04:21.872Z,29.80
2018-08-09T08:06:50.427Z,29.10
2018-08-09T08:09:18.955Z,28.20
2018-08-09T08:11:47.435Z,29.50
2018-08-09T08:14:15.987Z,29.40
2018-08-09T08:16:44.570Z,28.30
2018-08-09T08:19:13.141Z,28.40
2018-08-09T08:21:41.661Z,30.00
2018-08-09T08:24:10.874Z,28.90
2018-08-09T08:26:39.962Z,29.90
2018-08-09T08:29:08.405Z,32.80
2018-08-09T08:31:37.008Z,32.90
2018-08-09T08:34:05.546Z,33.10
2018-08-09T08:36:34.012Z,32.30
2018-08-09T08:39:02.654Z,29.80
2018-08-09T08:41:31.441Z,29.90
2018-08-09T08:43:59.874Z,29.10
2018-08-09T08:46:28.339Z,26.60
2018-08-09T08:48:56.943Z,27.60
2018-08-09T08:51:25.494Z,26.20
2018-08-09T08:53:54.011Z,27.70
2018-08-09T08:56:22.465Z,28.60
2018-08-09T08:58:51.016Z,26.50
2018-08-09T09:04:16.071Z,28.70
2018-08-09T09:06:44.617Z,27.70
2018-08-09T09:09:14.007Z,27.30
2018-08-09T09:11:43.737Z,28.10
2018-08-09T09:14:12.525Z,27.00
2018-08-09T09:16:41.900Z,26.10
2018-08-09T09:19:11.673Z,24.80
2018-08-09T09:21:42.274Z,24.00
2018-08-09T09:24:11.104Z,23.20
2018-08-09T09:26:40.009Z,22.10
2018-08-09T09:29:08.802Z,22.40
2018-08-09T09:31:37.682Z,22.00
2018-08-09T09:34:09.165Z,22.90
2018-08-09T09:36:38.048Z,23.20
2018-08-09T09:39:09.287Z,22.60
2018-08-09T09:41:38.458Z,24.50
2018-08-09T09:44:07.723Z,22.50
2018-08-09T09:46:36.448Z,23.40
2018-08-09T09:49:11.286Z,24.80
2018-08-09T09:51:42.958Z,26.10
2018-08-09T09:54:11.755Z,23.30
2018-08-09T09:56:45.544Z,23.30
2018-08-09T09:59:17.827Z,24.80
2018-08-09T10:01:47.167Z,24.10
2018-08-09T10:04:15.781Z,23.50
2018-08-09T10:06:44.836Z,23.00
2018-08-09T10:09:13.601Z,23.80
2018-08-09T10:11:42.268Z,23.60
2018-08-09T10:14:11.072Z,24.60
2018-08-09T10:16:39.769Z,21.60
2018-08-09T10:19:08.492Z,20.00
2018-08-09T10:21:37.162Z,20.00
2018-08-09T10:24:05.935Z,20.70
2018-08-09T10:26:34.660Z,19.10
2018-08-09T10:29:03.426Z,19.40
2018-08-09T10:31:32.220Z,17.90
2018-08-09T10:34:00.899Z,18.10
2018-08-09T10:36:29.539Z,18.40
2018-08-09T10:38:58.262Z,19.40
2018-08-09T10:41:26.894Z,19.80
2018-08-09T10:43:55.556Z,20.30
2018-08-09T10:46:24.199Z,20.50
2018-08-09T10:48:52.963Z,19.00
2018-08-09T10:51:21.708Z,19.70
2018-08-09T10:53:50.467Z,19.60
2018-08-09T10:56:19.129Z,18.70
2018-08-09T10:58:47.833Z,17.00
2018-08-09T11:01:16.646Z,18.00
2018-08-09T11:03:45.422Z,17.00
2018-08-09T11:06:14.190Z,18.70
2018-08-09T11:08:42.990Z,17.50
2018-08-09T11:11:11.736Z,17.10
2018-08-09T11:13:42.507Z,15.60
2018-08-09T11:16:11.653Z,16.30
2018-08-09T11:18:40.481Z,17.60
2018-08-09T11:21:09.287Z,17.30
2018-08-09T11:23:38.288Z,16.50
2018-08-09T11:26:06.999Z,16.80
2018-08-09T11:28:35.802Z,17.00
2018-08-09T11:31:04.507Z,17.00
2018-08-09T11:33:33.454Z,16.40
2018-08-09T11:36:02.069Z,16.80
2018-08-09T11:38:31.727Z,16.40
2018-08-09T11:41:00.522Z,17.60
2018-08-09T11:43:29.542Z,16.40
2018-08-09T11:45:58.434Z,16.00
2018-08-09T11:48:27.166Z,15.50
2018-08-09T11:50:55.854Z,15.60
2018-08-09T11:53:24.598Z,16.30
2018-08-09T11:55:53.314Z,16.30
2018-08-09T11:58:22.429Z,17.00
2018-08-09T12:00:51.117Z,17.10
2018-08-09T12:03:20.003Z,16.10
2018-08-09T12:05:48.711Z,15.90
2018-08-09T12:08:17.608Z,14.70
2018-08-09T12:10:46.544Z,15.00
2018-08-09T12:13:15.352Z,16.10
2018-08-09T12:15:44.060Z,15.70
2018-08-09T12:18:12.908Z,15.60
2018-08-09T12:20:41.780Z,15.40
2018-08-09T12:23:10.598Z,14.70
2018-08-09T12:25:40.073Z,13.60
2018-08-09T12:28:08.981Z,13.30
2018-08-09T12:30:37.741Z,13.70
2018-08-09T12:33:06.615Z,13.90
2018-08-09T12:35:35.381Z,14.10
2018-08-09T12:38:04.224Z,12.60
2018-08-09T12:40:33.218Z,13.50
2018-08-09T12:43:01.969Z,14.40
2018-08-09T12:45:30.783Z,14.40
2018-08-09T12:47:59.631Z,16.00
2018-08-09T12:50:28.584Z,15.20
2018-08-09T12:52:57.314Z,15.20
2018-08-09T12:55:26.040Z,15.20
2018-08-09T12:57:54.877Z,14.60
2018-08-09T13:00:23.731Z,14.80
2018-08-09T13:02:52.472Z,14.40
2018-08-09T13:05:21.488Z,14.50
2018-08-09T13:07:50.269Z,14.30
2018-08-09T13:10:19.024Z,14.70
2018-08-09T13:12:47.887Z,14.40
2018-08-09T13:15:16.767Z,14.90
2018-08-09T13:17:46.300Z,14.30
2018-08-09T13:20:18.123Z,14.20
2018-08-09T13:22:47.595Z,15.20
2018-08-09T13:25:16.457Z,14.50
2018-08-09T13:27:45.202Z,13.80
2018-08-09T13:30:14.771Z,13.60
2018-08-09T13:32:44.507Z,13.60
2018-08-09T13:35:13.189Z,13.30
2018-08-09T13:37:42.829Z,14.20
2018-08-09T13:40:11.666Z,14.20
2018-08-09T13:42:41.263Z,13.80
2018-08-09T13:45:14.694Z,14.70
2018-08-09T13:47:43.507Z,15.20
2018-08-09T13:50:12.741Z,16.20
2018-08-09T13:52:42.247Z,16.30
2018-08-09T13:55:13.289Z,15.60
2018-08-09T13:57:42.155Z,15.80
2018-08-09T14:00:12.405Z,15.50
2018-08-09T14:02:42.515Z,15.30
2018-08-09T14:05:11.389Z,16.50
2018-08-09T14:07:41.889Z,19.70
2018-08-09T14:10:11.505Z,27.40
2018-08-09T14:12:41.255Z,31.10
2018-08-09T14:15:11.350Z,33.60
2018-08-09T14:17:40.534Z,34.90
2018-08-09T14:20:11.966Z,36.00
2018-08-09T14:22:40.725Z,36.20
2018-08-09T14:25:09.566Z,36.10
2018-08-09T14:27:38.380Z,35.10
2018-08-09T14:30:08.808Z,34.90
2018-08-09T14:32:37.619Z,35.10
2018-08-09T14:35:08.890Z,35.70
2018-08-09T14:37:37.713Z,35.90
2018-08-09T14:40:07.795Z,35.40
2018-08-09T14:42:37.403Z,34.50
2018-08-09T14:45:11.541Z,34.80
2018-08-09T14:47:40.469Z,34.70
2018-08-09T14:50:09.615Z,34.60
2018-08-09T14:52:38.538Z,34.50
2018-08-09T14:55:08.624Z,34.80
2018-08-09T14:57:37.412Z,35.70
2018-08-09T15:00:10.554Z,35.80
2018-08-09T15:02:39.219Z,36.20
2018-08-09T15:05:09.248Z,36.70
2018-08-09T15:07:38.127Z,36.40
2018-08-09T15:10:07.156Z,35.70
2018-08-09T15:12:36.797Z,37.00
2018-08-09T15:15:07.498Z,36.60
2018-08-09T15:17:36.261Z,35.70
2018-08-09T15:20:07.150Z,33.90
2018-08-09T15:22:36.073Z,34.20
2018-08-09T15:25:05.380Z,32.70
2018-08-09T15:27:34.255Z,31.90
2018-08-09T15:30:03.117Z,33.70
2018-08-09T15:32:31.854Z,34.30
2018-08-09T15:35:00.601Z,33.90
2018-08-09T15:37:29.421Z,35.20
2018-08-09T15:39:58.107Z,35.50
2018-08-09T15:42:26.778Z,35.80
2018-08-09T15:44:55.629Z,36.10
2018-08-09T15:47:24.545Z,36.00
2018-08-09T15:49:53.643Z,36.50
2018-08-09T15:52:22.444Z,37.40
2018-08-09T15:54:51.267Z,37.20
2018-08-09T15:57:20.864Z,36.80
2018-08-09T15:59:49.582Z,35.60
2018-08-09T16:02:18.412Z,35.30
2018-08-09T16:04:47.240Z,35.90
2018-08-09T16:07:16.004Z,35.00
2018-08-09T16:09:45.515Z,35.40
2018-08-09T16:12:14.630Z,35.60
2018-08-09T16:14:43.458Z,35.60
2018-08-09T16:17:12.254Z,34.60
2018-08-09T16:19:41.688Z,34.20
2018-08-09T16:22:10.537Z,34.10
2018-08-09T16:24:39.482Z,34.30
2018-08-09T16:27:08.366Z,33.80
2018-08-09T16:29:37.064Z,34.20
2018-08-09T16:32:05.995Z,35.20
2018-08-09T16:34:34.774Z,35.70
2018-08-09T16:37:03.572Z,35.60
2018-08-09T16:39:32.326Z,34.90
2018-08-09T16:42:01.085Z,34.30
2018-08-09T16:44:29.889Z,33.40
2018-08-09T16:46:58.703Z,33.60
2018-08-09T16:49:27.562Z,33.30
2018-08-09T16:51:56.303Z,32.10
2018-08-09T16:54:25.137Z,30.70
2018-08-09T16:56:53.984Z,31.50
2018-08-09T16:59:22.933Z,31.50
2018-08-09T17:01:51.643Z,32.20
2018-08-09T17:04:20.366Z,32.50
2018-08-09T17:06:49.515Z,33.00
2018-08-09T17:09:18.456Z,33.20
2018-08-09T17:11:47.244Z,33.10
2018-08-09T17:14:16.608Z,33.00
2018-08-09T17:16:45.402Z,34.00
2018-08-09T17:19:14.124Z,34.20
2018-08-09T17:21:43.225Z,34.40
2018-08-09T17:24:12.091Z,35.00
2018-08-09T17:26:40.841Z,35.30
2018-08-09T17:29:10.395Z,34.80
2018-08-09T17:31:39.099Z,35.20
2018-08-09T17:34:08.072Z,34.40
2018-08-09T17:36:36.860Z,35.00
2018-08-09T17:39:09.570Z,34.90
2018-08-09T17:41:38.470Z,35.40
2018-08-09T17:44:08.597Z,34.90
2018-08-09T17:46:37.401Z,35.30
2018-08-09T17:49:06.347Z,35.20
2018-08-09T17:51:35.242Z,36.50
2018-08-09T17:54:04.200Z,38.70
2018-08-09T17:56:32.969Z,41.20
2018-08-09T17:59:01.673Z,44.20
2018-08-09T18:01:30.589Z,46.10
2018-08-09T18:03:59.349Z,47.50
2018-08-09T18:06:28.049Z,50.00
2018-08-09T18:08:56.762Z,51.10
2018-08-09T18:11:25.484Z,53.90
2018-08-09T18:13:54.258Z,58.70
2018-08-09T18:16:22.969Z,65.10
2018-08-09T18:18:51.762Z,62.70
2018-08-09T18:21:20.404Z,66.40
2018-08-09T18:23:49.484Z,70.80
2018-08-09T18:26:18.254Z,70.40
2018-08-09T18:28:46.930Z,76.30
2018-08-09T18:31:15.675Z,74.50
2018-08-09T18:33:44.487Z,80.80
2018-08-09T18:36:13.161Z,80.00
2018-08-09T18:38:41.939Z,82.20
2018-08-09T18:41:10.557Z,87.20
2018-08-09T18:43:39.276Z,85.40
2018-08-09T18:46:08.379Z,84.30
2018-08-09T18:48:37.090Z,86.30
2018-08-09T18:51:05.780Z,84.70
2018-08-09T18:53:34.512Z,87.30
2018-08-09T18:56:03.392Z,87.50
2018-08-09T18:58:32.187Z,86.20
2018-08-09T19:01:01.646Z,83.20
2018-08-09T19:03:30.654Z,83.20
2018-08-09T19:05:59.379Z,83.90
2018-08-09T19:08:27.949Z,86.10
2018-08-09T19:10:56.649Z,83.70
2018-08-09T19:13:25.292Z,85.50
2018-08-09T19:15:53.931Z,86.20
2018-08-09T19:18:22.637Z,85.40
2018-08-09T19:20:51.275Z,84.90
2018-08-09T19:23:19.981Z,87.70
2018-08-09T19:25:48.665Z,86.00
2018-08-09T19:28:17.326Z,85.80
2018-08-09T19:30:46.140Z,87.70
2018-08-09T19:33:14.750Z,89.30
2018-08-09T19:35:43.450Z,87.20
2018-08-09T19:38:12.065Z,87.40
2018-08-09T19:40:40.679Z,88.30
2018-08-09T19:43:09.337Z,87.20
2018-08-09T19:45:38.010Z,85.80
2018-08-09T19:48:07.681Z,86.30
2018-08-09T19:50:36.370Z,85.40
2018-08-09T19:53:05.005Z,86.40
2018-08-09T19:55:33.708Z,86.60
2018-08-09T19:58:02.384Z,86.00
2018-08-09T20:00:31.409Z,86.10
2018-08-09T20:03:00.042Z,84.30
2018-08-09T20:05:28.721Z,84.60
2018-08-09T20:07:57.700Z,84.90
2018-08-09T20:10:26.407Z,83.40
2018-08-09T20:12:55.078Z,84.90
2018-08-09T20:15:24.655Z,84.80
2018-08-09T20:17:53.505Z,84.60
2018-08-09T20:20:26.179Z,85.00
2018-08-09T20:22:54.888Z,83.80
2018-08-09T20:25:23.495Z,81.20
2018-08-09T20:27:52.106Z,83.10
2018-08-09T20:30:20.796Z,83.70
2018-08-09T20:32:49.797Z,81.80
2018-08-09T20:35:23.001Z,81.70
2018-08-09T20:37:51.859Z,81.40
2018-08-09T20:40:21.676Z,83.10
2018-08-09T20:42:51.232Z,82.90
2018-08-09T20:45:21.186Z,82.80
2018-08-09T20:47:49.935Z,80.90
2018-08-09T20:50:21.340Z,81.40
2018-08-09T20:52:50.494Z,82.80
2018-08-09T20:55:19.257Z,81.60
2018-08-09T20:57:48.716Z,81.40
2018-08-09T21:00:20.819Z,81.30
2018-08-09T21:02:50.794Z,81.30
2018-08-09T21:05:22.273Z,81.30
2018-08-09T21:07:52.033Z,81.50
2018-08-09T21:10:20.796Z,82.30
2018-08-09T21:12:49.528Z,83.00
2018-08-09T21:15:19.133Z,85.00
2018-08-09T21:17:48.481Z,84.30
2018-08-09T21:20:17.222Z,83.80
2018-08-09T21:22:46.910Z,83.50
2018-08-09T21:25:15.750Z,83.40
2018-08-09T21:27:44.962Z,82.90
2018-08-09T21:30:15.800Z,83.10
2018-08-09T21:32:44.766Z,83.40
2018-08-09T21:35:13.553Z,82.80
2018-08-09T21:37:42.796Z,83.60
2018-08-09T21:40:12.499Z,82.70
2018-08-09T21:42:41.303Z,82.60
2018-08-09T21:45:12.043Z,83.00
2018-08-09T21:47:40.601Z,83.90
2018-08-09T21:50:12.715Z,83.00
2018-08-09T21:52:41.640Z,83.20
2018-08-09T21:55:11.853Z,83.90
2018-08-09T21:57:40.723Z,83.10
2018-08-09T22:00:26.621Z,84.00
2018-08-09T22:02:55.967Z,83.90
2018-08-09T22:05:29.745Z,83.30
2018-08-09T22:08:03.820Z,82.80
2018-08-09T22:10:38.438Z,81.80
2018-08-09T22:13:12.325Z,81.30
2018-08-09T22:16:49.866Z,82.40
2018-08-09T22:19:23.795Z,80.50
2018-08-09T22:21:57.817Z,81.00
2018-08-09T22:24:26.473Z,82.30
2018-08-09T22:26:55.148Z,81.50
2018-08-09T22:29:23.740Z,84.10
2018-08-09T22:31:52.336Z,82.90
2018-08-09T22:34:20.974Z,82.70
2018-08-09T22:36:49.658Z,82.80
2018-08-09T22:39:18.254Z,83.80
2018-08-09T22:41:46.860Z,83.00
2018-08-09T22:44:15.525Z,83.40
2018-08-09T22:46:44.362Z,83.80
2018-08-09T22:49:13.071Z,84.40
2018-08-09T22:51:41.794Z,85.00
2018-08-09T22:54:10.369Z,84.50
2018-08-09T22:56:39.031Z,84.90
2018-08-09T22:59:07.685Z,85.60
2018-08-09T23:01:36.271Z,85.00
2018-08-09T23:04:04.887Z,85.70
2018-08-09T23:06:33.651Z,85.30
2018-08-09T23:09:02.233Z,84.90
2018-08-09T23:11:31.565Z,85.40
2018-08-09T23:14:00.280Z,85.30
2018-08-09T23:16:28.912Z,85.40
2018-08-09T23:18:57.654Z,85.70
2018-08-09T23:21:26.233Z,85.00
2018-08-09T23:23:54.829Z,85.30
2018-08-09T23:26:23.452Z,85.10
2018-08-09T23:28:52.128Z,85.70
2018-08-09T23:31:20.814Z,85.50
2018-08-09T23:33:49.482Z,85.40
2018-08-09T23:36:18.050Z,84.80
2018-08-09T23:38:46.812Z,84.20
2018-08-09T23:41:15.409Z,84.40
2018-08-09T23:43:44.024Z,84.20
2018-08-09T23:46:12.722Z,84.50
2018-08-09T23:48:41.386Z,84.40
2018-08-09T23:51:10.019Z,84.40
2018-08-09T23:53:38.615Z,84.30
2018-08-09T23:56:07.679Z,84.10
2018-08-09T23:58:36.316Z,83.80
